Main page
METAR-TAF:

METAR-TAF

Airports :

Hong Kong International Airport

Hong Kong, China

latitude: 22-19N, longitude: 113-55E, elevation: 9 m

Current weather observation

The report was made 25 minutes ago, at 23:00 UTC
Wind 9 kt from the North
Temperature 13°C
Humidity 51%
Pressure 1024 hPa
Visibility: 7000 m
Few clouds at a height of 3500 ft

METAR: VHHH 212300Z 36009KT 7000 FEW035 13/03 Q1024 NOSIG

Time: 07:25 (23:25 UTC)

Forecast

The report was made 6 hours and 25 minutes ago, at 17:00 UTC
Forecast valid from 21 at 18 UTC to 22 at 24 UTC
Wind 10 kt from the North/Northeast
Visibility: 7000 m
Few clouds at a height of 3500 ft
Temporary
from 22 at 03 UTC to 22 at 09 UTC
Wind 10 kt from the Northwest

TAF: VHHH 211700Z 2118/2224 02010KT 7000 FEW035 TX20/2206Z TN13/2123Z TN13/2223Z TEMPO 2203/2209 31010KT

Weather observations and forecasts of more than 4000 airports (METAR and TAF reports).

The available stations are represented by yellow and red dots on the map.

Hover mouse over dot to see the name of the station.

Then click to see weather observations and forecasts.

To change the map : click on the green buttons with a black cross to zoom in, on the green button with a dash to zoom out, or on the green arrows for adjacent maps.


METAR-TAF: